Time;durP1;ratioP1;P1;durP2;ratioP2;P2;SDS_P1;SDS_P2;PMS_P1;PMS_P2;Temp;Humidity;BMP_temperature;BMP_pressure;BME280_temperature;BME280_humidity;BME280_pressure;Samples;Min_cycle;Max_cycle;Signal;HPM_P1;HPM_P2
2021/08/13 00:02:03;;;;;;;26.73;19.17;;;16.80;99.90;;;;;;5012172;28;20475;-87
2021/08/13 00:04:28;;;;;;;29.10;21.52;;;16.80;99.90;;;;;;5013922;28;20033;-88
2021/08/13 00:06:54;;;;;;;28.35;22.17;;;16.80;99.90;;;;;;5010832;28;20049;-88
2021/08/13 00:09:22;;;;;;;28.48;22.38;;;16.70;99.90;;;;;;5015574;28;20026;-87
2021/08/13 00:11:48;;;;;;;28.40;20.23;;;16.70;99.90;;;;;;5018500;28;20033;-87
2021/08/13 00:14:13;;;;;;;31.48;23.85;;;16.70;99.90;;;;;;5005835;28;20045;-87
2021/08/13 00:16:39;;;;;;;30.73;23.33;;;16.70;99.90;;;;;;5010501;28;20019;-87
2021/08/13 00:19:05;;;;;;;31.35;23.20;;;16.70;99.90;;;;;;5012517;28;20466;-87
2021/08/13 00:21:31;;;;;;;26.02;19.23;;;16.70;99.90;;;;;;5014886;28;20490;-87
2021/08/13 00:23:57;;;;;;;21.88;17.35;;;16.70;99.90;;;;;;5015139;28;20425;-87
2021/08/13 00:26:23;;;;;;;20.60;16.17;;;16.70;99.90;;;;;;5010504;28;20173;-88
2021/08/13 00:28:49;;;;;;;21.55;16.92;;;16.70;99.90;;;;;;5009431;28;20038;-88
2021/08/13 00:31:14;;;;;;;25.13;19.55;;;16.60;99.90;;;;;;5010243;28;20109;-88
2021/08/13 00:33:40;;;;;;;25.35;20.98;;;16.60;99.90;;;;;;5000301;28;20133;-87
2021/08/13 00:36:05;;;;;;;29.27;22.55;;;16.70;99.90;;;;;;5015015;28;20026;-87
2021/08/13 00:38:31;;;;;;;29.38;22.42;;;16.60;99.90;;;;;;5013735;28;20038;-87
2021/08/13 00:40:56;;;;;;;29.98;22.95;;;16.70;99.90;;;;;;5016401;28;20041;-87
2021/08/13 00:43:22;;;;;;;32.33;23.35;;;16.60;99.90;;;;;;5009249;28;20394;-88
2021/08/13 00:45:48;;;;;;;31.83;23.50;;;16.60;99.90;;;;;;5016709;28;20036;-87
2021/08/13 00:48:13;;;;;;;27.60;21.83;;;16.60;99.90;;;;;;5013452;28;20320;-87
2021/08/13 00:50:39;;;;;;;32.72;24.05;;;16.60;99.90;;;;;;5007945;28;20026;-87
2021/08/13 00:53:07;;;;;;;29.65;22.83;;;16.60;99.90;;;;;;5006875;28;20034;-87
2021/08/13 00:55:33;;;;;;;29.73;22.23;;;16.60;99.90;;;;;;5013062;28;20037;-88
2021/08/13 00:57:59;;;;;;;24.98;20.55;;;16.60;99.90;;;;;;5011023;28;20026;-88
2021/08/13 01:00:25;;;;;;;24.88;18.20;;;16.70;99.90;;;;;;5009361;28;20030;-87
2021/08/13 01:02:50;;;;;;;24.55;18.92;;;16.70;99.90;;;;;;4998832;28;20026;-88
2021/08/13 01:05:16;;;;;;;26.33;20.85;;;16.70;99.90;;;;;;5009791;28;20112;-87
2021/08/13 01:07:42;;;;;;;28.77;21.50;;;16.80;99.90;;;;;;5007172;28;20117;-88
2021/08/13 01:10:08;;;;;;;28.15;20.77;;;16.80;99.90;;;;;;5014090;28;20030;-87
2021/08/13 01:13:16;;;;;;;27.83;22.92;;;16.90;99.90;;;;;;5014612;28;20143;-88
2021/08/13 01:15:46;;;;;;;32.50;22.83;;;16.90;99.90;;;;;;5001783;28;20502;-87
2021/08/13 01:18:19;;;;;;;28.45;21.50;;;16.80;99.90;;;;;;5025555;28;20394;-87
2021/08/13 01:21:12;;;;;;;26.25;19.83;;;16.90;99.90;;;;;;5009495;28;20034;-88
2021/08/13 01:23:45;;;;;;;26.02;20.38;;;16.80;99.90;;;;;;5015850;28;20034;-87
2021/08/13 01:26:11;;;;;;;27.95;20.83;;;16.80;99.90;;;;;;5015314;28;20040;-87
2021/08/13 01:29:22;;;;;;;24.30;21.30;;;16.80;99.90;;;;;;5013279;28;20018;-88
2021/08/13 01:32:02;;;;;;;24.30;17.80;;;16.80;99.90;;;;;;5011011;28;20028;-88
2021/08/13 01:34:30;;;;;;;17.73;15.50;;;16.80;99.90;;;;;;5009802;28;20042;-88
2021/08/13 01:36:58;;;;;;;23.33;16.23;;;16.80;99.90;;;;;;5012108;28;20033;-88
2021/08/13 01:39:29;;;;;;;19.88;16.05;;;16.80;99.90;;;;;;5014801;28;20026;-87
2021/08/13 01:41:54;;;;;;;22.25;16.08;;;16.80;99.90;;;;;;5013106;28;20022;-88
2021/08/13 01:44:21;;;;;;;30.50;17.67;;;16.80;99.90;;;;;;5013591;28;20044;-87
2021/08/13 01:46:47;;;;;;;15.02;12.30;;;16.80;99.90;;;;;;5014762;28;20073;-87
2021/08/13 01:49:15;;;;;;;16.17;13.27;;;16.70;99.90;;;;;;5012106;28;20793;-88
2021/08/13 01:51:41;;;;;;;13.25;10.25;;;16.70;99.90;;;;;;5007170;28;20021;-87
2021/08/13 01:54:08;;;;;;;12.02;8.95;;;16.60;99.90;;;;;;5008117;28;20141;-87
2021/08/13 01:56:34;;;;;;;13.00;10.40;;;16.60;99.90;;;;;;5011417;28;20022;-87
2021/08/13 01:59:01;;;;;;;17.63;12.80;;;16.60;99.90;;;;;;5006057;28;20029;-88
2021/08/13 02:01:31;;;;;;;18.77;14.20;;;16.50;99.90;;;;;;4999747;28;20482;-88
2021/08/13 02:03:57;;;;;;;22.20;17.30;;;16.50;99.90;;;;;;5007209;28;20665;-87
2021/08/13 02:06:24;;;;;;;22.80;17.85;;;16.50;99.90;;;;;;5006793;28;20057;-87
2021/08/13 02:08:51;;;;;;;24.23;17.83;;;16.50;99.90;;;;;;5006609;28;20025;-88
2021/08/13 02:11:17;;;;;;;25.27;19.42;;;16.40;99.90;;;;;;5013397;28;20077;-87
2021/08/13 02:13:43;;;;;;;28.75;21.70;;;16.40;99.90;;;;;;5008194;28;20069;-87
2021/08/13 02:16:13;;;;;;;25.75;19.15;;;16.40;99.90;;;;;;5009738;28;20030;-88
2021/08/13 02:18:45;;;;;;;19.95;15.10;;;16.30;99.90;;;;;;5011895;28;20026;-88
2021/08/13 02:21:14;;;;;;;24.70;18.35;;;16.30;99.90;;;;;;5009986;28;20490;-87
2021/08/13 02:23:39;;;;;;;26.80;19.40;;;16.30;99.90;;;;;;5008094;28;20032;-86
2021/08/13 02:26:05;;;;;;;26.13;20.40;;;16.30;99.90;;;;;;5014403;28;20022;-87
2021/08/13 02:28:30;;;;;;;26.42;19.73;;;16.20;99.90;;;;;;5012527;28;20068;-87
2021/08/13 02:30:56;;;;;;;17.67;13.80;;;16.20;99.90;;;;;;5012147;28;20026;-87
2021/08/13 02:33:22;;;;;;;18.77;15.35;;;16.20;99.90;;;;;;5011411;28;20068;-87
2021/08/13 02:35:49;;;;;;;27.98;19.73;;;16.10;99.90;;;;;;5006651;28;20498;-87
2021/08/13 02:38:31;;;;;;;25.80;19.52;;;16.10;99.90;;;;;;5009980;28;20022;-87
2021/08/13 02:41:07;;;;;;;29.38;22.33;;;16.20;99.90;;;;;;5012961;28;20077;-87
2021/08/13 02:43:43;;;;;;;34.20;24.98;;;16.20;99.90;;;;;;5000992;28;20047;-87
2021/08/13 02:46:11;;;;;;;25.80;21.13;;;16.20;99.90;;;;;;5006943;28;20068;-87
2021/08/13 02:48:39;;;;;;;29.60;20.80;;;16.10;99.90;;;;;;5007667;28;20022;-87
2021/08/13 02:51:08;;;;;;;33.10;24.25;;;16.10;99.90;;;;;;5002054;28;20501;-88
2021/08/13 02:53:38;;;;;;;28.83;23.25;;;16.10;99.90;;;;;;5012844;28;20033;-87
2021/08/13 02:56:12;;;;;;;29.02;22.77;;;16.10;99.90;;;;;;5013932;28;20520;-87
2021/08/13 02:58:45;;;;;;;36.45;26.80;;;16.10;99.90;;;;;;5009803;28;20124;-87
2021/08/13 03:01:16;;;;;;;32.42;25.35;;;16.00;99.90;;;;;;5009383;28;20022;-87
2021/08/13 03:03:43;;;;;;;35.92;26.00;;;16.10;99.90;;;;;;5005833;28;20049;-87
2021/08/13 03:06:12;;;;;;;31.77;24.98;;;16.00;99.90;;;;;;4999000;28;20140;-87
2021/08/13 03:08:39;;;;;;;36.75;27.33;;;16.00;99.90;;;;;;5009671;28;20022;-87
2021/08/13 03:11:05;;;;;;;39.45;29.33;;;16.00;99.90;;;;;;5009087;28;20029;-87
2021/08/13 03:13:32;;;;;;;39.78;27.67;;;15.90;99.90;;;;;;5003055;28;20449;-86
2021/08/13 03:15:59;;;;;;;41.10;28.42;;;16.00;99.90;;;;;;5009157;28;20029;-86
2021/08/13 03:18:27;;;;;;;37.65;28.13;;;15.90;99.90;;;;;;5008114;28;20080;-87
2021/08/13 03:20:53;;;;;;;37.38;27.83;;;15.90;99.90;;;;;;5006178;28;20068;-86
2021/08/13 03:23:19;;;;;;;38.58;26.85;;;16.00;99.90;;;;;;5012835;28;20030;-86
2021/08/13 03:25:45;;;;;;;30.48;24.73;;;15.90;99.90;;;;;;4994610;28;20026;-86
2021/08/13 03:28:11;;;;;;;36.78;26.70;;;15.90;99.90;;;;;;5004328;28;20040;-86
2021/08/13 03:30:41;;;;;;;34.83;26.40;;;15.90;99.90;;;;;;5013474;28;20018;-86
2021/08/13 03:33:12;;;;;;;39.10;26.98;;;15.90;99.90;;;;;;5004794;28;20049;-86
2021/08/13 03:35:38;;;;;;;37.72;27.13;;;15.90;99.90;;;;;;5013927;28;20021;-86
2021/08/13 03:38:04;;;;;;;37.08;28.80;;;15.90;99.90;;;;;;5016545;28;20414;-85
2021/08/13 03:40:30;;;;;;;37.00;28.38;;;15.90;99.90;;;;;;5016543;28;20026;-85
2021/08/13 03:42:55;;;;;;;38.13;29.00;;;15.90;99.90;;;;;;5010576;28;20033;-86
2021/08/13 03:45:21;;;;;;;48.78;27.52;;;16.00;99.90;;;;;;5002946;28;20386;-86
2021/08/13 03:47:47;;;;;;;37.25;26.55;;;16.00;99.90;;;;;;5012699;28;20375;-86
2021/08/13 03:50:12;;;;;;;29.48;25.17;;;16.00;99.90;;;;;;5008825;28;20037;-87
2021/08/13 03:52:39;;;;;;;32.00;24.63;;;16.00;99.90;;;;;;5016089;28;20029;-86
2021/08/13 03:55:05;;;;;;;29.98;25.05;;;16.10;99.90;;;;;;5014861;28;20030;-86
2021/08/13 03:57:31;;;;;;;28.05;22.50;;;16.10;99.90;;;;;;5016431;28;20041;-86
2021/08/13 03:59:56;;;;;;;28.40;23.33;;;16.10;99.90;;;;;;5012634;28;20049;-86
2021/08/13 04:02:22;;;;;;;35.70;27.38;;;16.10;99.90;;;;;;5012578;28;20033;-86
2021/08/13 04:04:47;;;;;;;37.38;27.65;;;16.10;99.90;;;;;;5008677;28;20033;-86
2021/08/13 04:07:13;;;;;;;38.33;28.85;;;16.10;99.90;;;;;;5015977;28;20053;-86
2021/08/13 04:09:38;;;;;;;41.33;29.40;;;16.10;99.90;;;;;;5013402;28;20017;-86
2021/08/13 04:12:04;;;;;;;35.13;28.00;;;16.10;99.90;;;;;;5001450;28;20034;-86
2021/08/13 04:14:30;;;;;;;41.47;29.33;;;16.10;99.90;;;;;;5012015;28;20034;-86
2021/08/13 04:16:55;;;;;;;36.95;28.88;;;16.10;99.90;;;;;;5005733;28;20015;-86
2021/08/13 04:19:20;;;;;;;28.35;21.58;;;16.20;99.90;;;;;;5006025;28;20496;-86
2021/08/13 04:21:46;;;;;;;28.95;23.33;;;16.10;99.90;;;;;;5014843;28;20040;-87
2021/08/13 04:24:11;;;;;;;29.27;23.63;;;16.10;99.90;;;;;;5008784;28;20112;-86
2021/08/13 04:26:37;;;;;;;25.05;21.25;;;16.10;99.90;;;;;;5016001;28;20041;-86
2021/08/13 04:29:03;;;;;;;34.28;25.42;;;16.20;99.90;;;;;;5010380;28;20030;-86
2021/08/13 04:31:28;;;;;;;39.90;28.80;;;16.20;99.90;;;;;;5000058;28;20038;-87
2021/08/13 04:33:54;;;;;;;34.20;27.90;;;16.30;99.90;;;;;;5006714;28;20087;-87
2021/08/13 04:36:20;;;;;;;37.38;27.63;;;16.30;99.90;;;;;;5015485;28;20109;-86
2021/08/13 04:38:45;;;;;;;38.40;28.55;;;16.40;99.90;;;;;;5010232;28;20077;-87
2021/08/13 04:41:11;;;;;;;38.83;28.45;;;16.40;99.90;;;;;;5006857;28;20116;-87
2021/08/13 04:43:36;;;;;;;38.45;26.92;;;16.40;99.90;;;;;;5013806;28;20026;-87
2021/08/13 04:46:03;;;;;;;37.85;26.75;;;16.50;99.90;;;;;;5007824;28;20113;-86
2021/08/13 04:48:28;;;;;;;39.13;28.58;;;16.50;99.90;;;;;;5012651;28;20038;-86
2021/08/13 04:50:54;;;;;;;31.35;24.40;;;16.50;99.90;;;;;;5006952;28;20018;-87
2021/08/13 04:53:19;;;;;;;33.40;25.15;;;16.50;99.90;;;;;;5010102;28;20034;-87
2021/08/13 04:55:45;;;;;;;25.67;21.95;;;16.50;99.90;;;;;;4997767;28;20398;-86
2021/08/13 04:58:10;;;;;;;33.05;24.35;;;16.50;99.90;;;;;;5010773;28;20052;-86
2021/08/13 05:00:36;;;;;;;27.67;22.30;;;16.50;99.90;;;;;;5023590;28;20031;-86
2021/08/13 05:03:05;;;;;;;34.53;26.00;;;16.50;99.90;;;;;;5010246;28;20026;-86
2021/08/13 05:05:31;;;;;;;26.52;23.23;;;16.50;99.90;;;;;;5011851;28;20042;-86
2021/08/13 05:07:56;;;;;;;34.00;25.27;;;16.60;99.90;;;;;;5023632;28;20044;-85
2021/08/13 05:10:22;;;;;;;30.52;26.05;;;16.60;99.90;;;;;;5019448;28;20044;-86
2021/08/13 05:12:47;;;;;;;34.15;26.88;;;16.60;99.90;;;;;;5021913;28;20167;-86
2021/08/13 05:15:14;;;;;;;34.97;25.95;;;16.70;99.90;;;;;;5027849;28;20026;-86
2021/08/13 05:17:40;;;;;;;36.72;27.50;;;16.70;99.90;;;;;;5022341;28;20018;-86
2021/08/13 05:20:07;;;;;;;36.78;27.50;;;16.80;99.90;;;;;;5021193;28;20037;-86
2021/08/13 05:22:34;;;;;;;36.67;28.70;;;16.80;99.90;;;;;;5002500;28;20094;-86
2021/08/13 05:25:05;;;;;;;35.50;27.65;;;16.90;99.90;;;;;;5011470;28;20036;-87
2021/08/13 05:27:30;;;;;;;37.20;27.10;;;17.00;99.90;;;;;;5006690;28;20030;-86
2021/08/13 05:29:56;;;;;;;37.90;26.27;;;17.00;99.90;;;;;;5007132;28;20080;-86
2021/08/13 05:32:23;;;;;;;37.80;26.17;;;17.10;99.90;;;;;;5006877;28;20056;-88
2021/08/13 05:34:48;;;;;;;35.60;26.67;;;17.20;99.90;;;;;;4996067;28;20034;-88
2021/08/13 05:37:14;;;;;;;36.80;27.60;;;17.20;99.90;;;;;;5009249;28;20061;-87
2021/08/13 05:39:39;;;;;;;41.05;29.33;;;17.40;99.90;;;;;;5012795;28;20398;-86
2021/08/13 05:42:05;;;;;;;42.58;29.38;;;17.40;99.90;;;;;;5003789;28;20022;-87
2021/08/13 05:44:31;;;;;;;42.55;28.38;;;17.60;99.90;;;;;;5007724;28;20482;-86
2021/08/13 05:46:56;;;;;;;37.03;27.77;;;17.70;99.90;;;;;;5006301;28;20033;-86
2021/08/13 05:49:22;;;;;;;35.78;27.15;;;17.80;99.90;;;;;;5013644;28;20037;-88
2021/08/13 05:51:47;;;;;;;40.75;27.90;;;17.90;99.90;;;;;;5006131;28;20042;-86
2021/08/13 05:54:13;;;;;;;38.05;26.30;;;18.00;99.90;;;;;;5007053;28;20069;-87
2021/08/13 05:56:38;;;;;;;36.30;25.60;;;18.10;99.90;;;;;;5005239;28;20034;-87
2021/08/13 05:59:04;;;;;;;39.42;26.90;;;18.20;99.90;;;;;;5002321;28;20045;-87
2021/08/13 06:01:29;;;;;;;37.10;26.40;;;18.20;99.90;;;;;;5011926;28;20026;-86
2021/08/13 06:03:55;;;;;;;36.28;25.90;;;18.20;99.90;;;;;;5010160;28;20046;-87
2021/08/13 06:06:21;;;;;;;32.05;23.55;;;18.30;99.90;;;;;;5003404;28;20038;-88
2021/08/13 06:08:47;;;;;;;33.60;23.05;;;18.30;99.90;;;;;;5014481;28;20107;-87
2021/08/13 06:11:13;;;;;;;31.88;22.83;;;18.30;99.90;;;;;;5010924;28;20029;-87
2021/08/13 06:13:38;;;;;;;34.30;23.05;;;18.30;99.90;;;;;;5009123;28;20034;-87
2021/08/13 06:16:05;;;;;;;32.65;23.08;;;18.30;99.90;;;;;;5014407;28;20482;-87
2021/08/13 06:18:30;;;;;;;32.65;22.08;;;18.30;99.90;;;;;;5014144;28;20108;-88
2021/08/13 06:20:56;;;;;;;34.22;22.20;;;18.40;99.90;;;;;;5012818;28;20607;-87
2021/08/13 06:23:24;;;;;;;33.60;23.20;;;18.40;99.90;;;;;;5008891;28;20075;-87
2021/08/13 06:25:50;;;;;;;37.28;22.60;;;18.50;99.90;;;;;;5009584;28;20558;-88
2021/08/13 06:28:15;;;;;;;33.42;22.42;;;18.50;99.90;;;;;;5016143;28;20068;-87
2021/08/13 06:30:41;;;;;;;33.00;22.15;;;18.60;99.90;;;;;;5013548;28;20398;-88
2021/08/13 06:33:06;;;;;;;28.92;21.45;;;18.60;99.90;;;;;;5009361;28;20158;-87
2021/08/13 06:35:32;;;;;;;30.85;20.30;;;18.60;99.90;;;;;;5009335;28;20204;-88
2021/08/13 06:37:57;;;;;;;28.95;20.25;;;18.60;99.90;;;;;;5005243;28;20026;-88
2021/08/13 06:40:24;;;;;;;27.05;19.05;;;18.60;99.90;;;;;;5008986;28;20478;-88
2021/08/13 06:42:51;;;;;;;26.73;19.13;;;18.60;99.90;;;;;;5007622;28;20037;-87
2021/08/13 06:45:20;;;;;;;25.05;16.73;;;18.60;99.90;;;;;;5007104;28;20026;-88
2021/08/13 06:47:45;;;;;;;25.25;15.93;;;18.60;99.90;;;;;;5004800;28;20028;-87
2021/08/13 06:50:13;;;;;;;20.48;13.65;;;18.60;99.90;;;;;;4997624;28;20144;-87
2021/08/13 06:52:39;;;;;;;19.23;14.38;;;18.60;99.90;;;;;;5008520;28;20034;-88
2021/08/13 06:55:05;;;;;;;20.38;13.95;;;18.60;99.90;;;;;;5009823;28;20038;-87
2021/08/13 06:57:31;;;;;;;22.02;13.80;;;18.60;99.90;;;;;;5007667;28;20022;-86
2021/08/13 06:59:56;;;;;;;18.90;14.48;;;18.70;99.90;;;;;;4994214;28;20037;-87
2021/08/13 07:02:23;;;;;;;23.00;15.07;;;18.70;99.90;;;;;;5011712;28;20029;-87
2021/08/13 07:04:49;;;;;;;18.27;13.07;;;18.80;99.90;;;;;;5007568;28;20417;-86
2021/08/13 07:07:14;;;;;;;19.05;14.15;;;18.90;99.90;;;;;;5005781;28;20069;-87
2021/08/13 07:09:45;;;;;;;21.17;14.55;;;19.10;99.90;;;;;;5009509;28;20037;-87
2021/08/13 07:12:11;;;;;;;20.55;14.75;;;19.20;99.90;;;;;;5012158;28;20061;-85
2021/08/13 07:14:36;;;;;;;17.98;12.45;;;19.30;99.90;;;;;;5004488;28;20068;-87
2021/08/13 07:17:02;;;;;;;18.02;11.98;;;19.40;99.90;;;;;;5001958;28;20034;-87
2021/08/13 07:19:27;;;;;;;19.08;12.23;;;19.60;99.90;;;;;;5007372;28;20022;-87
2021/08/13 07:21:53;;;;;;;15.70;11.15;;;19.60;99.90;;;;;;5008520;28;20044;-87
2021/08/13 07:24:21;;;;;;;15.88;10.80;;;19.60;99.90;;;;;;5012224;28;20060;-87
2021/08/13 07:26:47;;;;;;;17.40;11.70;;;19.60;99.80;;;;;;5011948;28;20061;-87
2021/08/13 07:29:12;;;;;;;19.20;11.77;;;19.60;99.70;;;;;;5011591;28;20030;-87
2021/08/13 07:31:38;;;;;;;19.27;11.15;;;19.60;99.50;;;;;;5010147;28;20022;-87
2021/08/13 07:34:04;;;;;;;16.40;10.27;;;19.50;99.40;;;;;;5008938;28;20034;-87
2021/08/13 07:36:29;;;;;;;14.60;10.07;;;19.40;99.40;;;;;;5014408;28;20022;-87
2021/08/13 07:38:55;;;;;;;16.60;10.30;;;19.40;99.00;;;;;;5009921;28;20034;-87
2021/08/13 07:41:20;;;;;;;14.55;9.90;;;19.40;99.30;;;;;;4996129;28;20164;-87
2021/08/13 07:43:46;;;;;;;20.33;11.30;;;19.50;99.20;;;;;;5011469;28;20033;-86
2021/08/13 07:46:11;;;;;;;13.15;9.00;;;19.60;98.90;;;;;;5010485;28;20392;-87
2021/08/13 07:48:37;;;;;;;17.05;10.23;;;19.60;98.80;;;;;;5018672;28;20026;-87
2021/08/13 07:51:03;;;;;;;16.75;10.20;;;19.60;98.60;;;;;;5016304;28;20064;-87
2021/08/13 07:53:29;;;;;;;13.20;9.35;;;19.60;98.60;;;;;;5010374;28;20037;-87
2021/08/13 07:55:54;;;;;;;17.25;10.43;;;19.80;98.50;;;;;;5002261;28;20034;-87
2021/08/13 07:58:21;;;;;;;12.50;8.70;;;19.90;98.40;;;;;;5000710;28;20058;-86
2021/08/13 08:00:46;;;;;;;15.02;9.02;;;20.00;98.30;;;;;;5003602;28;20037;-86
2021/08/13 08:03:13;;;;;;;14.60;8.43;;;20.10;97.90;;;;;;5009478;28;20026;-86
2021/08/13 08:05:39;;;;;;;12.48;8.70;;;20.20;97.40;;;;;;4997175;28;20072;-86
2021/08/13 08:08:05;;;;;;;12.52;8.15;;;20.20;97.10;;;;;;5001770;28;20088;-86
2021/08/13 08:10:30;;;;;;;13.23;8.65;;;20.20;96.80;;;;;;5016679;28;20019;-85
2021/08/13 08:12:56;;;;;;;13.15;8.13;;;20.20;96.90;;;;;;4993232;28;20058;-86
2021/08/13 08:15:21;;;;;;;15.35;8.60;;;20.30;96.80;;;;;;5009524;28;20125;-86
2021/08/13 08:17:47;;;;;;;11.82;7.95;;;20.30;96.90;;;;;;5006082;28;20094;-86
2021/08/13 08:20:13;;;;;;;11.35;7.53;;;20.50;96.80;;;;;;5000097;28;20049;-86
2021/08/13 08:22:39;;;;;;;13.00;8.20;;;20.60;96.80;;;;;;5012044;28;20029;-86
2021/08/13 08:25:05;;;;;;;13.15;8.88;;;20.80;96.10;;;;;;5026866;28;20026;-86
2021/08/13 08:27:30;;;;;;;12.20;7.68;;;20.80;95.70;;;;;;5005064;28;20034;-86
2021/08/13 08:29:56;;;;;;;9.95;6.90;;;20.80;95.80;;;;;;5001298;28;20428;-85
2021/08/13 08:32:21;;;;;;;10.30;7.85;;;20.90;95.80;;;;;;5016396;28;20049;-86
2021/08/13 08:34:47;;;;;;;10.02;6.70;;;21.00;95.50;;;;;;5011427;28;20037;-86
2021/08/13 08:37:13;;;;;;;14.07;6.90;;;21.10;95.80;;;;;;5014749;28;20512;-86
2021/08/13 08:39:39;;;;;;;9.63;6.90;;;21.10;95.30;;;;;;5007198;28;20042;-86
2021/08/13 08:42:13;;;;;;;12.40;7.07;;;21.10;95.20;;;;;;5008481;28;20022;-86
2021/08/13 08:44:39;;;;;;;8.25;5.95;;;21.10;95.10;;;;;;5000780;28;20030;-86
2021/08/13 08:47:05;;;;;;;8.68;6.03;;;21.10;95.00;;;;;;5004670;28;20026;-86
2021/08/13 08:49:31;;;;;;;8.77;6.30;;;21.10;94.90;;;;;;5016799;28;20520;-86
2021/08/13 08:51:58;;;;;;;9.20;5.70;;;21.10;94.80;;;;;;5013249;28;20097;-87
2021/08/13 08:54:26;;;;;;;13.65;7.20;;;21.10;94.60;;;;;;5013069;28;20034;-89
2021/08/13 08:56:53;;;;;;;11.43;7.35;;;20.90;94.70;;;;;;5011212;28;20026;-89
2021/08/13 08:59:21;;;;;;;11.93;7.07;;;20.90;94.80;;;;;;5015456;28;20034;-90
2021/08/13 09:01:46;;;;;;;8.40;6.32;;;20.90;94.80;;;;;;5004941;28;20026;-90
2021/08/13 09:04:12;;;;;;;9.52;6.57;;;21.10;94.90;;;;;;5004925;28;20030;-90
2021/08/13 09:06:42;;;;;;;12.65;7.05;;;21.10;94.60;;;;;;4996840;28;20053;-88
2021/08/13 09:09:08;;;;;;;10.10;5.70;;;21.10;94.30;;;;;;5005905;28;20046;-92
2021/08/13 09:11:39;;;;;;;10.18;5.38;;;21.20;94.10;;;;;;5002583;28;20329;-88
2021/08/13 09:14:11;;;;;;;11.30;5.95;;;21.20;94.00;;;;;;5005638;28;20069;-87
2021/08/13 09:16:37;;;;;;;14.82;6.50;;;21.20;93.70;;;;;;5020153;28;20549;-88
2021/08/13 09:19:05;;;;;;;10.88;5.65;;;21.20;93.70;;;;;;5005498;28;20072;-87
2021/08/13 09:21:33;;;;;;;9.18;5.82;;;21.30;93.50;;;;;;5012103;28;20052;-91
2021/08/13 09:24:01;;;;;;;9.45;6.80;;;21.50;93.20;;;;;;5007214;28;20089;-90
2021/08/13 09:26:38;;;;;;;10.13;6.20;;;21.50;92.50;;;;;;5015828;28;20029;-90
2021/08/13 09:29:03;;;;;;;9.68;5.85;;;21.50;92.70;;;;;;5015385;28;20052;-89
2021/08/13 09:31:30;;;;;;;9.85;5.40;;;21.60;92.60;;;;;;5013623;28;20022;-89
2021/08/13 09:34:17;;;;;;;7.53;6.32;;;21.60;92.70;;;;;;5008329;28;20044;-89
2021/08/13 09:36:49;;;;;;;7.70;5.30;;;21.70;92.50;;;;;;5010457;28;20387;-90
2021/08/13 09:39:14;;;;;;;10.45;5.90;;;21.80;92.40;;;;;;5003734;28;20520;-89
2021/08/13 09:41:48;;;;;;;9.88;6.13;;;21.90;92.10;;;;;;5011194;28;20034;-89
2021/08/13 09:44:31;;;;;;;11.68;6.25;;;22.00;91.90;;;;;;5011860;28;20026;-91
2021/08/13 09:47:01;;;;;;;12.45;6.10;;;22.10;91.50;;;;;;5002685;28;20018;-89
2021/08/13 09:49:28;;;;;;;11.60;4.75;;;22.20;91.30;;;;;;5021485;28;20065;-90
2021/08/13 09:51:54;;;;;;;7.97;4.30;;;22.20;90.80;;;;;;5010626;28;20022;-89
2021/08/13 09:54:26;;;;;;;8.48;4.90;;;22.20;90.70;;;;;;5006567;28;20030;-89
2021/08/13 09:56:51;;;;;;;;;;;22.30;90.50;;;;;;5029817;28;20076;-89
2021/08/13 09:59:21;;;;;;;11.35;5.55;;;22.10;90.80;;;;;;5010457;28;20242;-89
2021/08/13 10:01:49;;;;;;;9.07;4.95;;;22.20;90.70;;;;;;5010137;28;20022;-89
2021/08/13 10:04:16;;;;;;;8.55;4.25;;;22.30;90.60;;;;;;5011343;28;20029;-89
2021/08/13 10:06:43;;;;;;;8.27;4.80;;;22.50;90.50;;;;;;5003839;28;20129;-88
2021/08/13 10:09:22;;;;;;;6.13;3.83;;;22.50;90.00;;;;;;5013373;28;20046;-89
2021/08/13 10:12:08;;;;;;;9.35;4.78;;;22.60;90.00;;;;;;5015280;28;20034;-89
2021/08/13 10:14:40;;;;;;;8.75;3.70;;;22.50;88.40;;;;;;5013593;28;20052;-89
2021/08/13 10:17:10;;;;;;;6.38;3.67;;;22.50;88.30;;;;;;5014896;28;20029;-89
2021/08/13 10:19:38;;;;;;;6.05;3.45;;;22.50;86.90;;;;;;5012326;28;20037;-89
2021/08/13 10:22:05;;;;;;;6.57;3.70;;;22.60;85.50;;;;;;5015067;28;20421;-89
2021/08/13 10:24:31;;;;;;;5.40;3.28;;;22.50;84.50;;;;;;5013984;28;20026;-88
2021/08/13 10:26:56;;;;;;;6.03;3.20;;;22.60;84.50;;;;;;5015567;28;20030;-88
2021/08/13 10:29:23;;;;;;;8.63;3.22;;;22.70;83.00;;;;;;5015859;28;20030;-88
2021/08/13 10:31:49;;;;;;;5.65;3.38;;;22.70;79.60;;;;;;5005044;28;20014;-89
2021/08/13 10:34:14;;;;;;;5.47;3.42;;;22.70;79.00;;;;;;5013810;28;20174;-89
2021/08/13 10:36:42;;;;;;;8.07;4.30;;;22.60;79.70;;;;;;5015366;28;20026;-88
2021/08/13 10:39:10;;;;;;;8.18;3.35;;;22.60;79.20;;;;;;5012281;28;20506;-89
2021/08/13 10:41:40;;;;;;;9.48;4.75;;;22.60;78.40;;;;;;5013314;28;20026;-88
2021/08/13 10:44:10;;;;;;;8.27;3.63;;;22.60;77.90;;;;;;5012720;28;20329;-88
2021/08/13 10:46:37;;;;;;;8.57;3.42;;;22.70;79.00;;;;;;5012378;28;20068;-89
2021/08/13 10:49:03;;;;;;;9.00;3.88;;;22.80;78.10;;;;;;5014076;28;20111;-88
2021/08/13 10:51:32;;;;;;;10.43;3.58;;;22.90;77.50;;;;;;5009010;28;20026;-89
2021/08/13 10:54:19;;;;;;;7.20;3.80;;;23.00;77.60;;;;;;5012732;28;20383;-89
2021/08/13 10:56:48;;;;;;;12.30;4.50;;;23.10;75.80;;;;;;5011332;28;20042;-89
2021/08/13 10:59:33;;;;;;;10.18;3.55;;;23.10;75.40;;;;;;5003742;28;20445;-89
2021/08/13 11:02:13;;;;;;;9.90;3.92;;;23.30;76.50;;;;;;5009658;28;20478;-90
2021/08/13 11:04:41;;;;;;;12.25;4.22;;;23.40;75.70;;;;;;5005481;28;20392;-89
2021/08/13 11:07:06;;;;;;;10.27;4.93;;;23.40;75.00;;;;;;5010524;28;20076;-89
2021/08/13 11:09:34;;;;;;;8.30;3.65;;;23.50;74.90;;;;;;5010746;28;20482;-89
2021/08/13 11:12:10;;;;;;;7.13;3.55;;;23.40;74.80;;;;;;5011277;28;20533;-89
2021/08/13 11:14:49;;;;;;;9.98;3.67;;;23.20;75.70;;;;;;5001583;28;20035;-89
2021/08/13 11:17:37;;;;;;;8.18;3.33;;;23.20;78.00;;;;;;5008421;28;20041;-89
2021/08/13 11:20:05;;;;;;;6.43;2.60;;;23.30;77.30;;;;;;5006320;28;20049;-89
2021/08/13 11:22:35;;;;;;;6.47;2.15;;;23.20;77.00;;;;;;4996675;28;20429;-89
2021/08/13 11:25:01;;;;;;;6.88;2.75;;;23.20;75.50;;;;;;5012157;28;20029;-89
2021/08/13 11:27:26;;;;;;;6.82;2.58;;;23.10;74.90;;;;;;5005359;28;20441;-90
2021/08/13 11:29:52;;;;;;;7.35;2.78;;;23.10;75.30;;;;;;5013481;28;20101;-89
2021/08/13 11:32:22;;;;;;;6.07;2.63;;;23.30;75.30;;;;;;5017157;28;20030;-89
2021/08/13 11:34:48;;;;;;;6.13;2.10;;;23.30;74.50;;;;;;5003922;28;20521;-90
2021/08/13 11:37:43;;;;;;;5.32;1.95;;;23.40;75.40;;;;;;5007759;28;20033;-89
2021/08/13 11:40:15;;;;;;;7.95;1.90;;;23.80;75.80;;;;;;5005127;28;20125;-89
2021/08/13 11:42:47;;;;;;;;;;;24.00;74.50;;;;;;4995372;28;20029;-90
2021/08/13 11:45:12;;;;;;;8.18;1.50;;;24.00;74.00;;;;;;5014132;28;20269;-90
2021/08/13 11:47:48;;;;;;;5.40;1.27;;;24.00;72.50;;;;;;5007555;28;20018;-88
2021/08/13 11:50:14;;;;;;;4.70;0.80;;;24.00;70.60;;;;;;4999439;28;20040;-89
2021/08/13 11:52:47;;;;;;;5.25;0.90;;;24.00;69.20;;;;;;5013117;28;20018;-88
2021/08/13 11:55:25;;;;;;;6.07;1.17;;;24.10;68.80;;;;;;5007520;28;20442;-90
2021/08/13 11:57:53;;;;;;;3.08;1.00;;;24.20;67.20;;;;;;5016817;28;20026;-91
2021/08/13 12:00:21;;;;;;;4.63;0.95;;;24.30;66.70;;;;;;5016558;28;20022;-90
2021/08/13 12:02:47;;;;;;;3.92;0.70;;;24.30;67.30;;;;;;5017376;28;20524;-90
2021/08/13 12:05:14;;;;;;;6.43;0.95;;;24.50;67.60;;;;;;5013141;28;20042;-90
2021/08/13 12:07:40;;;;;;;7.85;0.77;;;24.60;67.40;;;;;;4998399;28;20038;-91
2021/08/13 12:10:09;;;;;;;4.05;0.65;;;24.70;67.80;;;;;;5014198;28;20126;-90
2021/08/13 12:12:35;;;;;;;5.32;1.00;;;24.70;68.90;;;;;;5010749;28;20039;-89
2021/08/13 12:15:01;;;;;;;3.65;0.95;;;24.70;67.80;;;;;;5010082;28;20107;-90
2021/08/13 12:17:26;;;;;;;4.20;1.15;;;24.60;67.80;;;;;;5014082;28;20045;-91
2021/08/13 12:19:56;;;;;;;6.43;1.30;;;24.50;68.50;;;;;;5008570;28;20022;-90
2021/08/13 12:22:40;;;;;;;4.22;0.90;;;24.80;68.50;;;;;;5004873;28;20497;-90
2021/08/13 12:25:11;;;;;;;6.38;1.00;;;24.90;67.70;;;;;;5027136;28;20022;-90
2021/08/13 12:27:39;;;;;;;4.20;0.70;;;25.00;68.50;;;;;;5014276;28;20475;-90
2021/08/13 12:30:17;;;;;;;4.30;0.80;;;25.10;67.70;;;;;;4997527;28;20418;-91
2021/08/13 12:32:43;;;;;;;3.35;0.65;;;24.90;67.90;;;;;;5010944;28;20025;-89
2021/08/13 12:35:12;;;;;;;3.78;0.50;;;25.00;65.70;;;;;;5008916;28;20570;-90
2021/08/13 12:37:38;;;;;;;2.42;0.43;;;25.00;61.20;;;;;;5013915;28;20502;-89